EXS42EM EGNM-LGKO
Flight info
| Callsign | EXS42EM |
|---|---|
| Flight time | N/A |
| Altitude | 37000 |
| Route | LAMIX L603 DOLAS DCT NAVPI DCT DODEN DCT NEGIX DCT DINKU DCT BESNI DCT LATLO DCT OBEDI DCT MAGAM DCT NOVLO DCT YULHU DCT VABEK UL603 OLOTA DCT RUGAS UN128 FSK DCT GIKAS DCT MES UN139 LURUS L995 KOPAR |
| Aircraft | B738/M-SDE2E3FGHIRWXY/LB1 |
Departure
| Time | N/A |
|---|---|
| Airport | Leeds Bradford Airport (EGNM) |
Arrival
| Time | 2026-05-08 13:53 |
|---|---|
| Airport | Kos International Airport "Ippokratis" (LGKO) |
| Time | Latitude | Longitude | Altitude | Speed | Heading |
|---|---|---|---|---|---|
| 2026-05-08 12:16 | 44.61303 | 18.01877 | 37066 ft | 451 kts | 134° |
| 2026-05-08 12:16 | 44.59300 | 18.05276 | 37068 ft | 453 kts | 134° |
| 2026-05-08 12:17 | 44.55283 | 18.12084 | 37055 ft | 452 kts | 134° |
| 2026-05-08 12:17 | 44.51277 | 18.18857 | 37059 ft | 450 kts | 134° |
| 2026-05-08 12:18 | 44.47278 | 18.25602 | 37055 ft | 449 kts | 134° |
| 2026-05-08 12:18 | 44.43319 | 18.32263 | 37043 ft | 448 kts | 134° |
| 2026-05-08 12:19 | 44.39341 | 18.38942 | 37051 ft | 446 kts | 134° |
| 2026-05-08 12:19 | 44.36645 | 18.43459 | 37054 ft | 445 kts | 134° |
| 2026-05-08 12:20 | 44.34968 | 18.46266 | 37051 ft | 445 kts | 134° |
| 2026-05-08 12:20 | 44.31000 | 18.52896 | 37042 ft | 444 kts | 134° |
| 2026-05-08 12:21 | 44.27032 | 18.59492 | 37061 ft | 443 kts | 134° |
| 2026-05-08 12:21 | 44.23061 | 18.66050 | 37059 ft | 443 kts | 134° |
| 2026-05-08 12:22 | 44.19083 | 18.72611 | 37042 ft | 443 kts | 134° |
| 2026-05-08 12:22 | 44.15105 | 18.79161 | 37048 ft | 444 kts | 134° |
| 2026-05-08 12:23 | 44.11113 | 18.85719 | 37035 ft | 444 kts | 134° |
| 2026-05-08 12:23 | 44.07112 | 18.92280 | 37047 ft | 445 kts | 134° |
| 2026-05-08 12:24 | 44.03098 | 18.98845 | 37048 ft | 446 kts | 134° |
| 2026-05-08 12:24 | 43.99071 | 19.05418 | 37042 ft | 447 kts | 134° |
| 2026-05-08 12:25 | 43.95036 | 19.11988 | 37019 ft | 447 kts | 134° |
| 2026-05-08 12:25 | 43.91004 | 19.18539 | 37030 ft | 447 kts | 134° |
| 2026-05-08 12:26 | 43.86959 | 19.25094 | 37025 ft | 448 kts | 134° |
| 2026-05-08 12:26 | 43.82926 | 19.31616 | 37034 ft | 449 kts | 134° |
| 2026-05-08 12:27 | 43.78854 | 19.38188 | 37031 ft | 450 kts | 134° |
| 2026-05-08 12:27 | 43.74773 | 19.44757 | 37021 ft | 450 kts | 134° |
| 2026-05-08 12:28 | 43.70687 | 19.51321 | 37025 ft | 450 kts | 134° |
| 2026-05-08 12:28 | 43.66598 | 19.57872 | 36999 ft | 450 kts | 134° |
| 2026-05-08 12:29 | 43.62508 | 19.64408 | 37011 ft | 450 kts | 134° |
| 2026-05-08 12:29 | 43.58419 | 19.70933 | 37006 ft | 449 kts | 134° |
| 2026-05-08 12:30 | 43.54333 | 19.77438 | 37007 ft | 449 kts | 134° |
| 2026-05-08 12:30 | 43.50242 | 19.83936 | 37007 ft | 448 kts | 135° |
| 2026-05-08 12:31 | 43.46153 | 19.90415 | 37002 ft | 448 kts | 135° |
| 2026-05-08 12:31 | 43.42058 | 19.96889 | 36997 ft | 448 kts | 135° |
| 2026-05-08 12:32 | 43.37960 | 20.03352 | 37004 ft | 448 kts | 135° |
| 2026-05-08 12:32 | 43.33854 | 20.09813 | 37000 ft | 449 kts | 135° |
| 2026-05-08 12:33 | 43.29771 | 20.16226 | 37010 ft | 449 kts | 135° |
| 2026-05-08 12:33 | 43.25650 | 20.22683 | 37010 ft | 450 kts | 135° |
| 2026-05-08 12:34 | 43.21512 | 20.29153 | 37019 ft | 452 kts | 135° |
| 2026-05-08 12:34 | 43.17357 | 20.35634 | 37030 ft | 453 kts | 135° |
| 2026-05-08 12:35 | 43.13193 | 20.42116 | 37018 ft | 453 kts | 135° |
| 2026-05-08 12:35 | 43.09030 | 20.48584 | 37017 ft | 452 kts | 135° |
| 2026-05-08 12:36 | 43.04874 | 20.55025 | 37035 ft | 451 kts | 135° |
| 2026-05-08 12:36 | 43.00726 | 20.61439 | 37044 ft | 450 kts | 135° |
| 2026-05-08 12:37 | 42.96342 | 20.67468 | 37051 ft | 446 kts | 140° |
| 2026-05-08 12:37 | 42.91831 | 20.73272 | 37052 ft | 446 kts | 140° |
| 2026-05-08 12:38 | 42.87324 | 20.79079 | 37060 ft | 446 kts | 140° |
| 2026-05-08 12:38 | 42.82826 | 20.84914 | 37070 ft | 447 kts | 140° |
| 2026-05-08 12:39 | 42.79084 | 20.89778 | 37065 ft | 448 kts | 140° |
| 2026-05-08 12:39 | 42.74573 | 20.95633 | 37061 ft | 448 kts | 140° |
| 2026-05-08 12:40 | 42.70060 | 21.01479 | 37070 ft | 448 kts | 140° |
| 2026-05-08 12:40 | 42.65539 | 21.07322 | 37062 ft | 448 kts | 140° |
| 2026-05-08 12:41 | 42.61019 | 21.13149 | 37058 ft | 448 kts | 140° |
| 2026-05-08 12:41 | 42.56495 | 21.18969 | 37079 ft | 448 kts | 140° |
| 2026-05-08 12:42 | 42.51961 | 21.24791 | 37077 ft | 449 kts | 140° |
| 2026-05-08 12:42 | 42.47406 | 21.30626 | 37071 ft | 451 kts | 140° |
| 2026-05-08 12:43 | 42.42837 | 21.36469 | 37059 ft | 452 kts | 140° |
| 2026-05-08 12:43 | 42.38258 | 21.42312 | 37045 ft | 453 kts | 140° |
| 2026-05-08 12:44 | 42.33671 | 21.48154 | 37053 ft | 453 kts | 141° |
| 2026-05-08 12:44 | 42.29084 | 21.53983 | 37039 ft | 453 kts | 140° |
| 2026-05-08 12:45 | 42.24492 | 21.59809 | 37054 ft | 453 kts | 141° |
| 2026-05-08 12:45 | 42.19928 | 21.65685 | 37055 ft | 454 kts | 139° |
| 2026-05-08 12:46 | 42.15428 | 21.71683 | 37032 ft | 455 kts | 139° |
| 2026-05-08 12:46 | 42.10963 | 21.77639 | 37020 ft | 454 kts | 139° |
| 2026-05-08 12:47 | 42.06470 | 21.83594 | 37032 ft | 452 kts | 139° |
| 2026-05-08 12:47 | 42.01950 | 21.89557 | 37023 ft | 452 kts | 139° |
| 2026-05-08 12:48 | 41.97462 | 21.95462 | 37040 ft | 451 kts | 139° |
| 2026-05-08 12:48 | 41.92966 | 22.01365 | 37049 ft | 453 kts | 140° |
| 2026-05-08 12:49 | 41.88453 | 22.07278 | 37050 ft | 453 kts | 140° |
| 2026-05-08 12:49 | 41.83966 | 22.13147 | 37027 ft | 453 kts | 139° |
| 2026-05-08 12:50 | 41.79449 | 22.19042 | 37058 ft | 453 kts | 140° |
| 2026-05-08 12:50 | 41.74919 | 22.24940 | 37065 ft | 455 kts | 140° |
| 2026-05-08 12:51 | 41.68067 | 22.33841 | 37066 ft | 456 kts | 140° |
| 2026-05-08 12:52 | 41.63540 | 22.39706 | 37061 ft | 457 kts | 140° |
| 2026-05-08 12:52 | 41.56689 | 22.48560 | 37056 ft | 457 kts | 140° |
| 2026-05-08 12:53 | 41.52111 | 22.54462 | 37066 ft | 458 kts | 140° |
| 2026-05-08 12:53 | 41.47530 | 22.60355 | 37079 ft | 458 kts | 140° |
| 2026-05-08 12:54 | 41.42939 | 22.66249 | 37087 ft | 459 kts | 140° |
| 2026-05-08 12:54 | 41.38329 | 22.72158 | 37087 ft | 460 kts | 140° |
| 2026-05-08 12:55 | 41.33705 | 22.78061 | 37104 ft | 462 kts | 141° |
| 2026-05-08 12:55 | 41.28593 | 22.83071 | 37080 ft | 454 kts | 152° |
| 2026-05-08 12:56 | 41.23264 | 22.87550 | 37093 ft | 452 kts | 152° |
| 2026-05-08 12:56 | 41.17976 | 22.92085 | 37083 ft | 452 kts | 151° |
| 2026-05-08 12:57 | 41.12723 | 22.96650 | 37091 ft | 451 kts | 151° |
| 2026-05-08 12:57 | 41.07549 | 23.01410 | 37096 ft | 456 kts | 146° |
| 2026-05-08 12:58 | 41.02618 | 23.06747 | 37089 ft | 459 kts | 144° |
| 2026-05-08 12:58 | 40.97707 | 23.12173 | 37090 ft | 460 kts | 145° |
| 2026-05-08 12:59 | 40.92760 | 23.17558 | 37074 ft | 461 kts | 146° |
| 2026-05-08 12:59 | 40.87811 | 23.22884 | 37081 ft | 457 kts | 146° |
| 2026-05-08 13:00 | 40.82889 | 23.28155 | 37094 ft | 454 kts | 146° |
| 2026-05-08 13:00 | 40.78027 | 23.33348 | 37079 ft | 452 kts | 146° |
| 2026-05-08 13:01 | 40.73143 | 23.38557 | 37092 ft | 451 kts | 146° |
| 2026-05-08 13:01 | 40.68262 | 23.43752 | 37078 ft | 452 kts | 146° |
| 2026-05-08 13:02 | 40.63362 | 23.48958 | 37098 ft | 453 kts | 146° |
| 2026-05-08 13:02 | 40.58443 | 23.54174 | 37114 ft | 455 kts | 146° |
| 2026-05-08 13:03 | 40.53492 | 23.59414 | 37089 ft | 458 kts | 146° |
| 2026-05-08 13:03 | 40.48516 | 23.64670 | 37086 ft | 460 kts | 147° |
| 2026-05-08 13:04 | 40.43515 | 23.69944 | 37109 ft | 462 kts | 147° |
| 2026-05-08 13:04 | 40.38482 | 23.75240 | 37089 ft | 465 kts | 147° |
| 2026-05-08 13:05 | 40.33435 | 23.80542 | 37091 ft | 465 kts | 147° |
| 2026-05-08 13:05 | 40.28386 | 23.85836 | 37094 ft | 465 kts | 147° |
| 2026-05-08 13:06 | 40.23339 | 23.91117 | 37099 ft | 464 kts | 147° |
| 2026-05-08 13:06 | 40.18294 | 23.96384 | 37096 ft | 463 kts | 147° |
| 2026-05-08 13:07 | 40.13298 | 24.01591 | 37096 ft | 462 kts | 147° |
| 2026-05-08 13:07 | 40.08277 | 24.06814 | 37094 ft | 461 kts | 147° |
| 2026-05-08 13:08 | 40.03269 | 24.12012 | 37095 ft | 460 kts | 147° |
| 2026-05-08 13:08 | 39.98233 | 24.17229 | 37091 ft | 459 kts | 147° |
| 2026-05-08 13:09 | 39.93232 | 24.22399 | 37096 ft | 459 kts | 147° |
| 2026-05-08 13:09 | 39.88224 | 24.27567 | 37099 ft | 460 kts | 148° |
| 2026-05-08 13:10 | 39.83232 | 24.32709 | 37094 ft | 461 kts | 148° |
| 2026-05-08 13:10 | 39.78159 | 24.37923 | 37094 ft | 462 kts | 148° |
| 2026-05-08 13:11 | 39.73138 | 24.43076 | 37085 ft | 464 kts | 148° |
| 2026-05-08 13:11 | 39.68065 | 24.48272 | 37103 ft | 465 kts | 148° |
| 2026-05-08 13:12 | 39.62963 | 24.53487 | 37104 ft | 468 kts | 148° |
| 2026-05-08 13:12 | 39.57837 | 24.58718 | 37098 ft | 470 kts | 148° |
| 2026-05-08 13:13 | 39.52692 | 24.63960 | 37104 ft | 471 kts | 148° |
| 2026-05-08 13:13 | 39.47535 | 24.69200 | 37072 ft | 471 kts | 148° |
| 2026-05-08 13:14 | 39.42376 | 24.74427 | 37099 ft | 471 kts | 148° |
| 2026-05-08 13:14 | 39.37219 | 24.79644 | 37106 ft | 470 kts | 148° |
| 2026-05-08 13:15 | 39.32064 | 24.84849 | 37099 ft | 470 kts | 148° |
| 2026-05-08 13:15 | 39.26916 | 24.90039 | 37100 ft | 469 kts | 148° |
| 2026-05-08 13:16 | 39.21766 | 24.95221 | 37100 ft | 469 kts | 148° |
| 2026-05-08 13:16 | 39.16623 | 25.00386 | 37096 ft | 468 kts | 148° |
| 2026-05-08 13:17 | 39.11489 | 25.05532 | 37100 ft | 467 kts | 148° |
| 2026-05-08 13:17 | 39.06354 | 25.10668 | 37108 ft | 468 kts | 148° |
| 2026-05-08 13:18 | 39.01209 | 25.15805 | 37107 ft | 468 kts | 148° |
| 2026-05-08 13:18 | 38.96050 | 25.20945 | 37108 ft | 469 kts | 148° |
| 2026-05-08 13:19 | 38.90887 | 25.26081 | 37094 ft | 470 kts | 148° |
| 2026-05-08 13:19 | 38.85710 | 25.31221 | 37109 ft | 471 kts | 148° |
| 2026-05-08 13:20 | 38.80520 | 25.36364 | 37096 ft | 472 kts | 148° |
| 2026-05-08 13:20 | 38.75319 | 25.41510 | 37115 ft | 473 kts | 148° |
| 2026-05-08 13:21 | 38.70107 | 25.46655 | 37111 ft | 474 kts | 148° |
| 2026-05-08 13:21 | 38.64887 | 25.51799 | 37097 ft | 474 kts | 148° |
| 2026-05-08 13:22 | 38.59681 | 25.56923 | 36680 ft | 468 kts | 148° |
| 2026-05-08 13:22 | 38.57123 | 25.59440 | 36355 ft | 462 kts | 149° |
| 2026-05-08 13:22 | 38.54582 | 25.61937 | 35982 ft | 458 kts | 149° |
| 2026-05-08 13:23 | 38.52062 | 25.64408 | 35583 ft | 455 kts | 149° |
| 2026-05-08 13:23 | 38.49559 | 25.66858 | 35217 ft | 452 kts | 149° |
| 2026-05-08 13:23 | 38.47070 | 25.69292 | 34850 ft | 449 kts | 149° |
| 2026-05-08 13:23 | 38.44600 | 25.71707 | 34478 ft | 446 kts | 150° |
| 2026-05-08 13:24 | 38.42141 | 25.74109 | 34106 ft | 444 kts | 150° |
| 2026-05-08 13:24 | 38.39694 | 25.76497 | 33669 ft | 442 kts | 150° |
| 2026-05-08 13:24 | 38.38083 | 25.78068 | 33411 ft | 440 kts | 150° |
| 2026-05-08 13:24 | 38.35662 | 25.80427 | 33042 ft | 436 kts | 150° |
| 2026-05-08 13:25 | 38.33257 | 25.82769 | 32674 ft | 433 kts | 150° |
| 2026-05-08 13:25 | 38.30876 | 25.85087 | 32318 ft | 430 kts | 150° |
| 2026-05-08 13:25 | 38.28505 | 25.87392 | 31967 ft | 427 kts | 150° |
| 2026-05-08 13:25 | 38.26131 | 25.89633 | 31619 ft | 420 kts | 155° |
| 2026-05-08 13:26 | 38.23617 | 25.91405 | 31279 ft | 407 kts | 166° |
| 2026-05-08 13:26 | 38.21000 | 25.92648 | 30951 ft | 399 kts | 170° |
| 2026-05-08 13:26 | 38.18388 | 25.93804 | 30609 ft | 396 kts | 170° |
| 2026-05-08 13:26 | 38.15794 | 25.94945 | 30274 ft | 394 kts | 170° |
| 2026-05-08 13:27 | 38.13213 | 25.96087 | 29854 ft | 392 kts | 169° |
| 2026-05-08 13:27 | 38.10655 | 25.97231 | 29529 ft | 387 kts | 169° |
| 2026-05-08 13:27 | 38.08129 | 25.98368 | 29159 ft | 384 kts | 169° |
| 2026-05-08 13:27 | 38.05622 | 25.99501 | 28820 ft | 381 kts | 169° |
| 2026-05-08 13:28 | 38.03130 | 26.00627 | 28458 ft | 378 kts | 169° |
| 2026-05-08 13:28 | 38.00662 | 26.01744 | 28106 ft | 376 kts | 169° |
| 2026-05-08 13:28 | 37.98205 | 26.02855 | 27759 ft | 373 kts | 169° |
| 2026-05-08 13:28 | 37.95768 | 26.03956 | 27431 ft | 371 kts | 169° |
| 2026-05-08 13:29 | 37.93345 | 26.05050 | 27095 ft | 369 kts | 169° |
| 2026-05-08 13:29 | 37.90935 | 26.06138 | 26763 ft | 367 kts | 169° |
| 2026-05-08 13:29 | 37.88537 | 26.07219 | 26415 ft | 365 kts | 169° |
| 2026-05-08 13:29 | 37.86146 | 26.08296 | 26093 ft | 364 kts | 169° |
| 2026-05-08 13:30 | 37.83759 | 26.09370 | 25769 ft | 364 kts | 169° |
| 2026-05-08 13:30 | 37.81369 | 26.10445 | 25455 ft | 367 kts | 169° |
| 2026-05-08 13:30 | 37.78930 | 26.11537 | 25109 ft | 378 kts | 168° |
| 2026-05-08 13:30 | 37.76422 | 26.12660 | 24746 ft | 385 kts | 168° |
| 2026-05-08 13:31 | 37.73929 | 26.13784 | 24378 ft | 385 kts | 168° |
| 2026-05-08 13:31 | 37.71399 | 26.14927 | 23965 ft | 386 kts | 167° |
| 2026-05-08 13:31 | 37.68869 | 26.16071 | 23585 ft | 386 kts | 167° |
| 2026-05-08 13:31 | 37.66343 | 26.17212 | 23189 ft | 385 kts | 167° |
| 2026-05-08 13:32 | 37.63829 | 26.18347 | 22829 ft | 383 kts | 167° |
| 2026-05-08 13:32 | 37.61328 | 26.19476 | 22489 ft | 380 kts | 167° |
| 2026-05-08 13:32 | 37.58844 | 26.20595 | 22146 ft | 379 kts | 167° |
| 2026-05-08 13:32 | 37.56364 | 26.21709 | 21792 ft | 378 kts | 167° |
| 2026-05-08 13:33 | 37.53892 | 26.22820 | 21440 ft | 376 kts | 167° |
| 2026-05-08 13:33 | 37.51440 | 26.23923 | 21107 ft | 373 kts | 167° |
| 2026-05-08 13:33 | 37.49002 | 26.25018 | 20769 ft | 371 kts | 167° |
| 2026-05-08 13:33 | 37.46577 | 26.26106 | 20439 ft | 369 kts | 167° |
| 2026-05-08 13:34 | 37.44168 | 26.27186 | 20104 ft | 367 kts | 166° |
| 2026-05-08 13:34 | 37.41772 | 26.28259 | 19768 ft | 365 kts | 166° |
| 2026-05-08 13:34 | 37.39389 | 26.29326 | 19439 ft | 363 kts | 166° |
| 2026-05-08 13:34 | 37.37016 | 26.30387 | 19110 ft | 361 kts | 166° |
| 2026-05-08 13:35 | 37.34654 | 26.31442 | 18768 ft | 360 kts | 166° |
| 2026-05-08 13:35 | 37.32299 | 26.32494 | 18431 ft | 359 kts | 166° |
| 2026-05-08 13:35 | 37.29944 | 26.33545 | 18051 ft | 358 kts | 166° |
| 2026-05-08 13:35 | 37.27608 | 26.34588 | 17700 ft | 356 kts | 166° |
| 2026-05-08 13:36 | 37.25279 | 26.35627 | 17361 ft | 353 kts | 166° |
| 2026-05-08 13:36 | 37.22970 | 26.36656 | 17022 ft | 351 kts | 166° |
| 2026-05-08 13:36 | 37.20678 | 26.37677 | 16699 ft | 349 kts | 166° |
| 2026-05-08 13:36 | 37.18395 | 26.38690 | 16369 ft | 346 kts | 166° |
| 2026-05-08 13:37 | 37.16129 | 26.39693 | 16030 ft | 345 kts | 166° |
| 2026-05-08 13:37 | 37.13875 | 26.40690 | 15710 ft | 343 kts | 166° |
| 2026-05-08 13:37 | 37.11635 | 26.41680 | 15394 ft | 341 kts | 166° |
| 2026-05-08 13:37 | 37.09401 | 26.42667 | 15074 ft | 339 kts | 166° |
| 2026-05-08 13:38 | 37.07177 | 26.43648 | 14759 ft | 338 kts | 165° |
| 2026-05-08 13:38 | 37.04964 | 26.44625 | 14431 ft | 337 kts | 165° |
| 2026-05-08 13:38 | 37.02762 | 26.45597 | 14107 ft | 334 kts | 165° |
| 2026-05-08 13:38 | 37.00584 | 26.46558 | 13771 ft | 329 kts | 165° |
| 2026-05-08 13:39 | 36.98442 | 26.47503 | 13425 ft | 325 kts | 165° |
| 2026-05-08 13:39 | 36.96326 | 26.48435 | 13097 ft | 320 kts | 165° |
| 2026-05-08 13:39 | 36.94271 | 26.49340 | 12797 ft | 315 kts | 165° |
| 2026-05-08 13:39 | 36.92220 | 26.50242 | 12468 ft | 310 kts | 165° |
| 2026-05-08 13:40 | 36.90217 | 26.51202 | 12155 ft | 309 kts | 155° |
| 2026-05-08 13:40 | 36.88565 | 26.52929 | 11766 ft | 315 kts | 129° |
| 2026-05-08 13:40 | 36.87536 | 26.55380 | 11308 ft | 320 kts | 114° |
| 2026-05-08 13:40 | 36.86697 | 26.57948 | 10934 ft | 319 kts | 113° |
| 2026-05-08 13:41 | 36.85864 | 26.60489 | 10643 ft | 314 kts | 114° |
| 2026-05-08 13:41 | 36.85025 | 26.62985 | 10360 ft | 310 kts | 115° |
| 2026-05-08 13:41 | 36.84192 | 26.65432 | 10181 ft | 301 kts | 115° |
| 2026-05-08 13:41 | 36.83379 | 26.67802 | 9987 ft | 295 kts | 116° |
| 2026-05-08 13:42 | 36.82354 | 26.69946 | 9842 ft | 279 kts | 135° |
| 2026-05-08 13:42 | 36.81067 | 26.71710 | 9676 ft | 274 kts | 136° |
| 2026-05-08 13:42 | 36.79766 | 26.73453 | 9467 ft | 276 kts | 136° |
| 2026-05-08 13:42 | 36.78445 | 26.75231 | 9229 ft | 284 kts | 136° |
| 2026-05-08 13:43 | 36.77093 | 26.77063 | 8971 ft | 290 kts | 136° |
| 2026-05-08 13:43 | 36.75734 | 26.78921 | 8684 ft | 288 kts | 135° |
| 2026-05-08 13:43 | 36.74398 | 26.80757 | 8409 ft | 284 kts | 135° |
| 2026-05-08 13:43 | 36.73084 | 26.82565 | 8143 ft | 279 kts | 135° |
| 2026-05-08 13:44 | 36.71788 | 26.84346 | 7892 ft | 275 kts | 135° |
| 2026-05-08 13:44 | 36.70513 | 26.86098 | 7640 ft | 271 kts | 135° |
| 2026-05-08 13:44 | 36.69287 | 26.87861 | 7384 ft | 268 kts | 127° |
| 2026-05-08 13:44 | 36.68421 | 26.89893 | 7181 ft | 264 kts | 117° |
| 2026-05-08 13:45 | 36.67652 | 26.91947 | 6934 ft | 260 kts | 117° |
| 2026-05-08 13:45 | 36.66874 | 26.93965 | 6690 ft | 257 kts | 118° |
| 2026-05-08 13:45 | 36.66091 | 26.95950 | 6438 ft | 254 kts | 118° |
| 2026-05-08 13:45 | 36.65304 | 26.97928 | 6189 ft | 257 kts | 118° |
| 2026-05-08 13:46 | 36.64500 | 26.99940 | 5934 ft | 262 kts | 118° |
| 2026-05-08 13:46 | 36.63680 | 27.01986 | 5771 ft | 264 kts | 118° |
| 2026-05-08 13:46 | 36.62867 | 27.04011 | 5574 ft | 258 kts | 118° |
| 2026-05-08 13:46 | 36.62080 | 27.05972 | 5452 ft | 249 kts | 118° |
| 2026-05-08 13:47 | 36.61316 | 27.07869 | 5337 ft | 240 kts | 118° |
| 2026-05-08 13:47 | 36.60586 | 27.09684 | 5257 ft | 228 kts | 118° |
| 2026-05-08 13:47 | 36.59887 | 27.11418 | 5030 ft | 221 kts | 118° |
| 2026-05-08 13:47 | 36.59453 | 27.13211 | 4777 ft | 217 kts | 87° |
| 2026-05-08 13:48 | 36.59848 | 27.14975 | 4593 ft | 209 kts | 69° |
| 2026-05-08 13:48 | 36.60364 | 27.16620 | 4378 ft | 205 kts | 70° |
| 2026-05-08 13:48 | 36.60883 | 27.18288 | 4197 ft | 203 kts | 70° |
| 2026-05-08 13:48 | 36.61416 | 27.19920 | 3962 ft | 204 kts | 62° |
| 2026-05-08 13:49 | 36.62433 | 27.21072 | 3738 ft | 205 kts | 18° |
| 2026-05-08 13:49 | 36.63787 | 27.21008 | 3525 ft | 196 kts | 334° |
| 2026-05-08 13:49 | 36.64963 | 27.20223 | 3342 ft | 189 kts | 332° |
| 2026-05-08 13:49 | 36.66098 | 27.19448 | 3130 ft | 183 kts | 329° |
| 2026-05-08 13:50 | 36.67200 | 27.18634 | 2986 ft | 181 kts | 328° |
| 2026-05-08 13:50 | 36.68256 | 27.17826 | 2836 ft | 180 kts | 328° |
| 2026-05-08 13:50 | 36.69326 | 27.16998 | 2628 ft | 180 kts | 327° |
| 2026-05-08 13:50 | 36.70358 | 27.16194 | 2421 ft | 170 kts | 327° |
| 2026-05-08 13:51 | 36.71359 | 27.15416 | 2134 ft | 171 kts | 327° |
| 2026-05-08 13:51 | 36.72356 | 27.14641 | 1883 ft | 162 kts | 327° |
| 2026-05-08 13:51 | 36.73285 | 27.13917 | 1646 ft | 155 kts | 327° |
| 2026-05-08 13:51 | 36.74198 | 27.13207 | 1438 ft | 154 kts | 327° |
| 2026-05-08 13:52 | 36.75098 | 27.12507 | 1211 ft | 152 kts | 327° |
| 2026-05-08 13:52 | 36.75995 | 27.11808 | 1040 ft | 153 kts | 327° |
| 2026-05-08 13:52 | 36.76900 | 27.11104 | 826 ft | 152 kts | 327° |
| 2026-05-08 13:52 | 36.77790 | 27.10407 | 619 ft | 150 kts | 327° |
| 2026-05-08 13:53 | 36.78662 | 27.09732 | 407 ft | 145 kts | 327° |
| 2026-05-08 13:53 | 36.79433 | 27.09129 | 412 ft | 106 kts | 328° |
| 2026-05-08 13:53 | 36.79873 | 27.08787 | 415 ft | 49 kts | 328° |
| 2026-05-08 13:53 | 36.80140 | 27.08581 | 417 ft | 38 kts | 328° |
| 2026-05-08 13:54 | 36.80307 | 27.08454 | 416 ft | 17 kts | 340° |
| 2026-05-08 13:54 | 36.80358 | 27.08485 | 419 ft | 7 kts | 80° |
| 2026-05-08 13:54 | 36.80349 | 27.08546 | 416 ft | 7 kts | 103° |
| 2026-05-08 13:54 | 36.80336 | 27.08619 | 420 ft | 10 kts | 103° |
| 2026-05-08 13:55 | 36.80296 | 27.08702 | 416 ft | 11 kts | 144° |
| 2026-05-08 13:55 | 36.80227 | 27.08754 | 419 ft | 12 kts | 148° |
| 2026-05-08 13:55 | 36.80087 | 27.08865 | 415 ft | 10 kts | 148° |
| 2026-05-08 13:56 | 36.80046 | 27.08907 | 418 ft | 7 kts | 101° |
| 2026-05-08 13:56 | 36.80065 | 27.08955 | 414 ft | 4 kts | 57° |
| 2026-05-08 13:56 | 36.80076 | 27.08979 | 412 ft | 2 kts | 58° |
| 2026-05-08 13:56 | 36.80079 | 27.08984 | 418 ft | 0 kts | 58° |